sensor_id;sensor_type;location;lat;lon;timestamp;P1;durP1;ratioP1;P2;durP2;ratioP2
22378;SDS011;11357;49.990;7.370;2024-01-27T00:01:24;56.33;;;32.60;;
22378;SDS011;11357;49.990;7.370;2024-01-27T00:03:50;59.70;;;27.73;;
22378;SDS011;11357;49.990;7.370;2024-01-27T00:06:16;80.03;;;34.53;;
22378;SDS011;11357;49.990;7.370;2024-01-27T00:08:41;72.27;;;31.57;;
22378;SDS011;11357;49.990;7.370;2024-01-27T00:11:07;58.77;;;29.43;;
22378;SDS011;11357;49.990;7.370;2024-01-27T00:13:33;61.47;;;24.03;;
22378;SDS011;11357;49.990;7.370;2024-01-27T00:15:58;63.87;;;31.50;;
22378;SDS011;11357;49.990;7.370;2024-01-27T00:18:24;54.37;;;23.03;;
22378;SDS011;11357;49.990;7.370;2024-01-27T00:20:49;46.67;;;21.40;;
22378;SDS011;11357;49.990;7.370;2024-01-27T00:23:15;70.00;;;35.57;;
22378;SDS011;11357;49.990;7.370;2024-01-27T00:25:41;80.40;;;30.83;;
22378;SDS011;11357;49.990;7.370;2024-01-27T00:28:10;56.60;;;31.40;;
22378;SDS011;11357;49.990;7.370;2024-01-27T00:30:35;89.23;;;40.97;;
22378;SDS011;11357;49.990;7.370;2024-01-27T00:33:01;55.40;;;25.83;;
22378;SDS011;11357;49.990;7.370;2024-01-27T00:35:27;73.30;;;26.83;;
22378;SDS011;11357;49.990;7.370;2024-01-27T00:37:52;70.37;;;27.13;;
22378;SDS011;11357;49.990;7.370;2024-01-27T00:40:18;68.63;;;26.87;;
22378;SDS011;11357;49.990;7.370;2024-01-27T00:42:44;75.87;;;30.33;;
22378;SDS011;11357;49.990;7.370;2024-01-27T00:45:09;79.03;;;30.37;;
22378;SDS011;11357;49.990;7.370;2024-01-27T00:47:35;75.00;;;37.20;;
22378;SDS011;11357;49.990;7.370;2024-01-27T00:50:01;60.93;;;27.33;;
22378;SDS011;11357;49.990;7.370;2024-01-27T00:52:26;91.60;;;36.47;;
22378;SDS011;11357;49.990;7.370;2024-01-27T00:54:52;77.67;;;40.50;;
22378;SDS011;11357;49.990;7.370;2024-01-27T00:57:18;63.23;;;33.30;;
22378;SDS011;11357;49.990;7.370;2024-01-27T00:59:43;94.10;;;44.77;;
22378;SDS011;11357;49.990;7.370;2024-01-27T01:02:09;108.53;;;44.47;;
22378;SDS011;11357;49.990;7.370;2024-01-27T01:04:35;64.83;;;50.50;;
22378;SDS011;11357;49.990;7.370;2024-01-27T01:07:00;87.93;;;54.83;;
22378;SDS011;11357;49.990;7.370;2024-01-27T01:09:26;139.27;;;72.43;;
22378;SDS011;11357;49.990;7.370;2024-01-27T01:11:51;130.70;;;67.17;;
22378;SDS011;11357;49.990;7.370;2024-01-27T01:14:17;99.37;;;64.27;;
22378;SDS011;11357;49.990;7.370;2024-01-27T01:16:43;102.53;;;51.70;;
22378;SDS011;11357;49.990;7.370;2024-01-27T01:19:09;100.43;;;55.00;;
22378;SDS011;11357;49.990;7.370;2024-01-27T01:21:34;111.27;;;52.00;;
22378;SDS011;11357;49.990;7.370;2024-01-27T01:24:00;88.07;;;42.87;;
22378;SDS011;11357;49.990;7.370;2024-01-27T01:26:25;67.47;;;46.53;;
22378;SDS011;11357;49.990;7.370;2024-01-27T01:28:51;58.27;;;28.50;;
22378;SDS011;11357;49.990;7.370;2024-01-27T01:31:17;89.23;;;32.90;;
22378;SDS011;11357;49.990;7.370;2024-01-27T01:33:43;89.13;;;46.07;;
22378;SDS011;11357;49.990;7.370;2024-01-27T01:36:09;119.63;;;44.50;;
22378;SDS011;11357;49.990;7.370;2024-01-27T01:38:35;60.20;;;30.27;;
22378;SDS011;11357;49.990;7.370;2024-01-27T01:41:00;68.77;;;35.40;;
22378;SDS011;11357;49.990;7.370;2024-01-27T01:43:26;78.87;;;35.77;;
22378;SDS011;11357;49.990;7.370;2024-01-27T01:45:52;62.33;;;29.73;;
22378;SDS011;11357;49.990;7.370;2024-01-27T01:48:21;77.13;;;27.87;;
22378;SDS011;11357;49.990;7.370;2024-01-27T01:50:46;51.53;;;19.03;;
22378;SDS011;11357;49.990;7.370;2024-01-27T01:53:13;57.20;;;30.70;;
22378;SDS011;11357;49.990;7.370;2024-01-27T01:55:39;48.20;;;27.63;;
22378;SDS011;11357;49.990;7.370;2024-01-27T01:58:05;61.27;;;28.57;;
22378;SDS011;11357;49.990;7.370;2024-01-27T02:00:31;60.30;;;26.50;;
22378;SDS011;11357;49.990;7.370;2024-01-27T02:02:57;67.63;;;32.60;;
22378;SDS011;11357;49.990;7.370;2024-01-27T02:05:23;101.30;;;43.50;;
22378;SDS011;11357;49.990;7.370;2024-01-27T02:07:49;118.23;;;43.43;;
22378;SDS011;11357;49.990;7.370;2024-01-27T02:10:16;98.27;;;66.33;;
22378;SDS011;11357;49.990;7.370;2024-01-27T02:12:42;151.83;;;81.03;;
22378;SDS011;11357;49.990;7.370;2024-01-27T02:15:10;105.40;;;41.43;;
22378;SDS011;11357;49.990;7.370;2024-01-27T02:17:39;59.60;;;28.17;;
22378;SDS011;11357;49.990;7.370;2024-01-27T02:20:06;83.90;;;30.53;;
22378;SDS011;11357;49.990;7.370;2024-01-27T02:22:33;57.57;;;21.53;;
22378;SDS011;11357;49.990;7.370;2024-01-27T02:25:00;54.67;;;24.93;;
22378;SDS011;11357;49.990;7.370;2024-01-27T02:27:26;58.73;;;22.63;;
22378;SDS011;11357;49.990;7.370;2024-01-27T02:29:51;66.97;;;30.47;;
22378;SDS011;11357;49.990;7.370;2024-01-27T02:32:17;67.50;;;34.10;;
22378;SDS011;11357;49.990;7.370;2024-01-27T02:34:43;78.23;;;32.13;;
22378;SDS011;11357;49.990;7.370;2024-01-27T02:37:09;50.80;;;22.13;;
22378;SDS011;11357;49.990;7.370;2024-01-27T02:39:35;54.30;;;20.77;;
22378;SDS011;11357;49.990;7.370;2024-01-27T02:42:01;69.03;;;29.80;;
22378;SDS011;11357;49.990;7.370;2024-01-27T02:44:27;81.60;;;37.00;;
22378;SDS011;11357;49.990;7.370;2024-01-27T02:46:53;75.97;;;38.33;;
22378;SDS011;11357;49.990;7.370;2024-01-27T02:49:18;88.80;;;33.33;;
22378;SDS011;11357;49.990;7.370;2024-01-27T02:51:44;81.93;;;34.83;;
22378;SDS011;11357;49.990;7.370;2024-01-27T02:54:10;86.13;;;38.17;;
22378;SDS011;11357;49.990;7.370;2024-01-27T02:56:36;108.63;;;55.27;;
22378;SDS011;11357;49.990;7.370;2024-01-27T02:59:01;79.53;;;29.37;;
22378;SDS011;11357;49.990;7.370;2024-01-27T03:01:27;84.20;;;39.70;;
22378;SDS011;11357;49.990;7.370;2024-01-27T03:03:53;136.00;;;77.03;;
22378;SDS011;11357;49.990;7.370;2024-01-27T03:06:18;121.70;;;55.13;;
22378;SDS011;11357;49.990;7.370;2024-01-27T03:08:44;175.57;;;79.17;;
22378;SDS011;11357;49.990;7.370;2024-01-27T03:11:10;154.10;;;99.07;;
22378;SDS011;11357;49.990;7.370;2024-01-27T03:13:36;180.90;;;90.40;;
22378;SDS011;11357;49.990;7.370;2024-01-27T03:16:02;80.27;;;44.63;;
22378;SDS011;11357;49.990;7.370;2024-01-27T03:18:27;127.93;;;67.03;;
22378;SDS011;11357;49.990;7.370;2024-01-27T03:20:53;69.63;;;43.70;;
22378;SDS011;11357;49.990;7.370;2024-01-27T03:23:19;113.23;;;57.07;;
22378;SDS011;11357;49.990;7.370;2024-01-27T03:25:44;73.60;;;41.47;;
22378;SDS011;11357;49.990;7.370;2024-01-27T03:28:10;96.93;;;52.10;;
22378;SDS011;11357;49.990;7.370;2024-01-27T03:30:36;82.10;;;39.60;;
22378;SDS011;11357;49.990;7.370;2024-01-27T03:33:02;65.20;;;38.83;;
22378;SDS011;11357;49.990;7.370;2024-01-27T03:35:27;84.90;;;40.53;;
22378;SDS011;11357;49.990;7.370;2024-01-27T03:37:53;86.13;;;44.97;;
22378;SDS011;11357;49.990;7.370;2024-01-27T03:40:18;97.40;;;44.27;;
22378;SDS011;11357;49.990;7.370;2024-01-27T03:42:44;51.27;;;22.47;;
22378;SDS011;11357;49.990;7.370;2024-01-27T03:45:10;74.60;;;28.43;;
22378;SDS011;11357;49.990;7.370;2024-01-27T03:47:35;60.67;;;26.10;;
22378;SDS011;11357;49.990;7.370;2024-01-27T03:50:01;80.23;;;32.57;;
22378;SDS011;11357;49.990;7.370;2024-01-27T03:52:27;72.47;;;38.27;;
22378;SDS011;11357;49.990;7.370;2024-01-27T03:54:52;89.17;;;39.07;;
22378;SDS011;11357;49.990;7.370;2024-01-27T03:57:18;96.30;;;44.23;;
22378;SDS011;11357;49.990;7.370;2024-01-27T03:59:44;112.30;;;40.50;;
22378;SDS011;11357;49.990;7.370;2024-01-27T04:02:10;101.80;;;43.77;;
22378;SDS011;11357;49.990;7.370;2024-01-27T04:04:35;124.07;;;53.17;;
22378;SDS011;11357;49.990;7.370;2024-01-27T04:07:01;85.07;;;52.30;;
22378;SDS011;11357;49.990;7.370;2024-01-27T04:09:27;123.63;;;74.10;;
22378;SDS011;11357;49.990;7.370;2024-01-27T04:11:52;114.63;;;55.00;;
22378;SDS011;11357;49.990;7.370;2024-01-27T04:14:18;84.00;;;48.83;;
22378;SDS011;11357;49.990;7.370;2024-01-27T04:16:44;117.27;;;52.67;;
22378;SDS011;11357;49.990;7.370;2024-01-27T04:19:10;124.00;;;60.53;;
22378;SDS011;11357;49.990;7.370;2024-01-27T04:21:35;101.40;;;48.30;;
22378;SDS011;11357;49.990;7.370;2024-01-27T04:24:01;142.50;;;49.03;;
22378;SDS011;11357;49.990;7.370;2024-01-27T04:26:27;86.63;;;39.63;;
22378;SDS011;11357;49.990;7.370;2024-01-27T04:28:53;106.00;;;48.67;;
22378;SDS011;11357;49.990;7.370;2024-01-27T04:31:18;275.30;;;93.97;;
22378;SDS011;11357;49.990;7.370;2024-01-27T04:33:44;245.50;;;92.23;;
22378;SDS011;11357;49.990;7.370;2024-01-27T04:36:10;118.53;;;67.20;;
22378;SDS011;11357;49.990;7.370;2024-01-27T04:38:35;94.83;;;43.10;;
22378;SDS011;11357;49.990;7.370;2024-01-27T04:41:01;158.93;;;79.50;;
22378;SDS011;11357;49.990;7.370;2024-01-27T04:43:27;92.70;;;45.97;;
22378;SDS011;11357;49.990;7.370;2024-01-27T04:45:53;78.47;;;30.67;;
22378;SDS011;11357;49.990;7.370;2024-01-27T04:48:19;60.93;;;28.43;;
22378;SDS011;11357;49.990;7.370;2024-01-27T04:50:46;59.03;;;31.63;;
22378;SDS011;11357;49.990;7.370;2024-01-27T04:53:11;157.77;;;83.70;;
22378;SDS011;11357;49.990;7.370;2024-01-27T04:55:37;185.27;;;110.43;;
22378;SDS011;11357;49.990;7.370;2024-01-27T04:58:03;235.73;;;180.57;;
22378;SDS011;11357;49.990;7.370;2024-01-27T05:00:29;116.07;;;73.00;;
22378;SDS011;11357;49.990;7.370;2024-01-27T05:02:55;112.33;;;48.90;;
22378;SDS011;11357;49.990;7.370;2024-01-27T05:05:22;88.63;;;44.70;;
22378;SDS011;11357;49.990;7.370;2024-01-27T05:07:48;109.90;;;44.60;;
22378;SDS011;11357;49.990;7.370;2024-01-27T05:10:16;71.17;;;31.03;;
22378;SDS011;11357;49.990;7.370;2024-01-27T05:12:42;76.17;;;39.40;;
22378;SDS011;11357;49.990;7.370;2024-01-27T05:15:09;97.43;;;40.80;;
22378;SDS011;11357;49.990;7.370;2024-01-27T05:17:35;81.27;;;34.97;;
22378;SDS011;11357;49.990;7.370;2024-01-27T05:20:01;130.17;;;61.10;;
22378;SDS011;11357;49.990;7.370;2024-01-27T05:22:29;141.27;;;84.67;;
22378;SDS011;11357;49.990;7.370;2024-01-27T05:24:55;128.53;;;68.17;;
22378;SDS011;11357;49.990;7.370;2024-01-27T05:27:20;131.30;;;66.43;;
22378;SDS011;11357;49.990;7.370;2024-01-27T05:29:46;72.53;;;36.13;;
22378;SDS011;11357;49.990;7.370;2024-01-27T05:32:12;55.03;;;24.60;;
22378;SDS011;11357;49.990;7.370;2024-01-27T05:34:37;73.33;;;31.27;;
22378;SDS011;11357;49.990;7.370;2024-01-27T05:37:03;51.07;;;20.97;;
22378;SDS011;11357;49.990;7.370;2024-01-27T05:39:29;60.17;;;21.63;;
22378;SDS011;11357;49.990;7.370;2024-01-27T05:41:54;70.67;;;25.27;;
22378;SDS011;11357;49.990;7.370;2024-01-27T05:44:20;51.23;;;25.03;;
22378;SDS011;11357;49.990;7.370;2024-01-27T05:46:46;60.37;;;30.60;;
22378;SDS011;11357;49.990;7.370;2024-01-27T05:49:12;108.73;;;40.93;;
22378;SDS011;11357;49.990;7.370;2024-01-27T05:51:37;101.77;;;45.97;;
22378;SDS011;11357;49.990;7.370;2024-01-27T05:54:03;84.67;;;34.00;;
22378;SDS011;11357;49.990;7.370;2024-01-27T05:56:29;78.37;;;35.60;;
22378;SDS011;11357;49.990;7.370;2024-01-27T05:58:55;65.23;;;28.23;;
22378;SDS011;11357;49.990;7.370;2024-01-27T06:01:20;71.50;;;30.90;;
22378;SDS011;11357;49.990;7.370;2024-01-27T06:03:46;42.90;;;31.83;;
22378;SDS011;11357;49.990;7.370;2024-01-27T06:06:12;94.17;;;35.27;;
22378;SDS011;11357;49.990;7.370;2024-01-27T06:08:38;60.93;;;25.83;;
22378;SDS011;11357;49.990;7.370;2024-01-27T06:11:03;73.70;;;28.03;;
22378;SDS011;11357;49.990;7.370;2024-01-27T06:13:29;55.13;;;23.00;;
22378;SDS011;11357;49.990;7.370;2024-01-27T06:15:55;91.80;;;37.13;;
22378;SDS011;11357;49.990;7.370;2024-01-27T06:18:21;93.60;;;40.27;;
22378;SDS011;11357;49.990;7.370;2024-01-27T06:20:47;107.07;;;59.07;;
22378;SDS011;11357;49.990;7.370;2024-01-27T06:23:13;116.10;;;86.67;;
22378;SDS011;11357;49.990;7.370;2024-01-27T06:25:38;205.03;;;109.13;;
22378;SDS011;11357;49.990;7.370;2024-01-27T06:28:05;195.63;;;122.23;;
22378;SDS011;11357;49.990;7.370;2024-01-27T06:30:30;249.30;;;148.00;;
22378;SDS011;11357;49.990;7.370;2024-01-27T06:32:56;425.57;;;191.47;;
22378;SDS011;11357;49.990;7.370;2024-01-27T06:35:22;485.77;;;246.50;;
22378;SDS011;11357;49.990;7.370;2024-01-27T06:37:47;578.57;;;255.63;;
22378;SDS011;11357;49.990;7.370;2024-01-27T06:40:13;494.77;;;262.07;;
22378;SDS011;11357;49.990;7.370;2024-01-27T06:42:39;590.83;;;283.73;;
22378;SDS011;11357;49.990;7.370;2024-01-27T06:45:04;845.53;;;329.47;;
22378;SDS011;11357;49.990;7.370;2024-01-27T06:47:30;919.73;;;333.73;;
22378;SDS011;11357;49.990;7.370;2024-01-27T06:49:56;793.27;;;314.40;;
22378;SDS011;11357;49.990;7.370;2024-01-27T06:52:22;815.57;;;348.47;;
22378;SDS011;11357;49.990;7.370;2024-01-27T06:54:47;849.43;;;350.90;;
22378;SDS011;11357;49.990;7.370;2024-01-27T06:57:19;856.20;;;341.53;;
22378;SDS011;11357;49.990;7.370;2024-01-27T06:59:47;903.13;;;346.10;;
22378;SDS011;11357;49.990;7.370;2024-01-27T07:02:17;1072.90;;;385.50;;
22378;SDS011;11357;49.990;7.370;2024-01-27T07:04:53;1235.10;;;433.67;;
22378;SDS011;11357;49.990;7.370;2024-01-27T07:07:21;1048.37;;;374.17;;
22378;SDS011;11357;49.990;7.370;2024-01-27T07:09:50;1018.80;;;378.47;;
22378;SDS011;11357;49.990;7.370;2024-01-27T07:12:16;946.73;;;370.70;;
22378;SDS011;11357;49.990;7.370;2024-01-27T07:14:41;974.37;;;350.77;;
22378;SDS011;11357;49.990;7.370;2024-01-27T07:17:07;900.67;;;351.30;;
22378;SDS011;11357;49.990;7.370;2024-01-27T07:19:33;871.37;;;354.37;;
22378;SDS011;11357;49.990;7.370;2024-01-27T07:21:58;1067.20;;;388.60;;
22378;SDS011;11357;49.990;7.370;2024-01-27T07:24:29;857.27;;;361.57;;
22378;SDS011;11357;49.990;7.370;2024-01-27T07:26:54;879.67;;;344.70;;
22378;SDS011;11357;49.990;7.370;2024-01-27T07:29:20;604.10;;;270.50;;
22378;SDS011;11357;49.990;7.370;2024-01-27T07:31:47;760.03;;;288.90;;
22378;SDS011;11357;49.990;7.370;2024-01-27T07:34:13;686.40;;;286.93;;
22378;SDS011;11357;49.990;7.370;2024-01-27T07:36:38;669.00;;;264.00;;
22378;SDS011;11357;49.990;7.370;2024-01-27T07:39:04;602.30;;;272.90;;
22378;SDS011;11357;49.990;7.370;2024-01-27T07:41:30;682.27;;;268.63;;
22378;SDS011;11357;49.990;7.370;2024-01-27T07:43:56;751.70;;;329.37;;
22378;SDS011;11357;49.990;7.370;2024-01-27T07:46:22;516.10;;;276.13;;
22378;SDS011;11357;49.990;7.370;2024-01-27T07:48:48;637.87;;;282.70;;
22378;SDS011;11357;49.990;7.370;2024-01-27T07:51:14;559.87;;;233.70;;
22378;SDS011;11357;49.990;7.370;2024-01-27T07:53:40;594.10;;;257.33;;
22378;SDS011;11357;49.990;7.370;2024-01-27T07:56:07;449.83;;;213.57;;
22378;SDS011;11357;49.990;7.370;2024-01-27T07:58:32;781.17;;;377.40;;
22378;SDS011;11357;49.990;7.370;2024-01-27T08:00:58;717.40;;;317.93;;
22378;SDS011;11357;49.990;7.370;2024-01-27T08:03:25;586.83;;;275.97;;
22378;SDS011;11357;49.990;7.370;2024-01-27T08:05:50;601.97;;;290.30;;
22378;SDS011;11357;49.990;7.370;2024-01-27T08:08:16;479.70;;;230.83;;
22378;SDS011;11357;49.990;7.370;2024-01-27T08:10:42;528.70;;;243.97;;
22378;SDS011;11357;49.990;7.370;2024-01-27T08:13:08;414.53;;;216.40;;
22378;SDS011;11357;49.990;7.370;2024-01-27T08:15:34;467.93;;;225.10;;
22378;SDS011;11357;49.990;7.370;2024-01-27T08:17:59;437.23;;;213.03;;
22378;SDS011;11357;49.990;7.370;2024-01-27T08:20:25;338.00;;;199.10;;
22378;SDS011;11357;49.990;7.370;2024-01-27T08:22:51;266.23;;;171.00;;
22378;SDS011;11357;49.990;7.370;2024-01-27T08:25:17;368.03;;;176.50;;
22378;SDS011;11357;49.990;7.370;2024-01-27T08:27:43;364.70;;;205.27;;
22378;SDS011;11357;49.990;7.370;2024-01-27T08:30:09;357.83;;;163.57;;
22378;SDS011;11357;49.990;7.370;2024-01-27T08:32:35;190.03;;;123.17;;
22378;SDS011;11357;49.990;7.370;2024-01-27T08:35:01;129.80;;;67.00;;
22378;SDS011;11357;49.990;7.370;2024-01-27T08:37:27;134.43;;;60.87;;
22378;SDS011;11357;49.990;7.370;2024-01-27T08:39:52;163.43;;;85.60;;
22378;SDS011;11357;49.990;7.370;2024-01-27T08:42:18;127.40;;;64.07;;
22378;SDS011;11357;49.990;7.370;2024-01-27T08:44:44;113.10;;;59.43;;
22378;SDS011;11357;49.990;7.370;2024-01-27T08:47:09;82.73;;;33.13;;
22378;SDS011;11357;49.990;7.370;2024-01-27T08:49:35;74.03;;;35.93;;
22378;SDS011;11357;49.990;7.370;2024-01-27T08:52:01;70.57;;;38.07;;
22378;SDS011;11357;49.990;7.370;2024-01-27T08:54:27;84.83;;;25.90;;
22378;SDS011;11357;49.990;7.370;2024-01-27T08:56:52;81.43;;;27.47;;
22378;SDS011;11357;49.990;7.370;2024-01-27T08:59:18;43.90;;;13.43;;
22378;SDS011;11357;49.990;7.370;2024-01-27T09:01:43;30.97;;;9.20;;
22378;SDS011;11357;49.990;7.370;2024-01-27T09:04:09;24.40;;;8.83;;
22378;SDS011;11357;49.990;7.370;2024-01-27T09:06:35;34.03;;;9.40;;
22378;SDS011;11357;49.990;7.370;2024-01-27T09:09:00;21.60;;;11.53;;
22378;SDS011;11357;49.990;7.370;2024-01-27T09:11:26;18.07;;;8.20;;
22378;SDS011;11357;49.990;7.370;2024-01-27T09:13:55;32.87;;;10.67;;
22378;SDS011;11357;49.990;7.370;2024-01-27T09:16:21;27.97;;;10.07;;
22378;SDS011;11357;49.990;7.370;2024-01-27T09:18:47;34.00;;;9.20;;
22378;SDS011;11357;49.990;7.370;2024-01-27T09:21:15;22.47;;;7.67;;
22378;SDS011;11357;49.990;7.370;2024-01-27T09:23:45;28.17;;;12.53;;
22378;SDS011;11357;49.990;7.370;2024-01-27T09:26:12;41.97;;;12.20;;
22378;SDS011;11357;49.990;7.370;2024-01-27T09:28:38;34.30;;;10.47;;
22378;SDS011;11357;49.990;7.370;2024-01-27T09:31:09;21.63;;;7.90;;
22378;SDS011;11357;49.990;7.370;2024-01-27T09:33:35;34.80;;;13.33;;
22378;SDS011;11357;49.990;7.370;2024-01-27T09:36:01;26.60;;;13.87;;
22378;SDS011;11357;49.990;7.370;2024-01-27T09:38:27;53.50;;;11.43;;
22378;SDS011;11357;49.990;7.370;2024-01-27T09:40:53;50.77;;;19.23;;
22378;SDS011;11357;49.990;7.370;2024-01-27T09:43:18;117.20;;;25.90;;
22378;SDS011;11357;49.990;7.370;2024-01-27T09:45:46;128.47;;;49.03;;
22378;SDS011;11357;49.990;7.370;2024-01-27T09:48:12;107.30;;;35.40;;
22378;SDS011;11357;49.990;7.370;2024-01-27T09:50:42;59.63;;;16.50;;
22378;SDS011;11357;49.990;7.370;2024-01-27T09:53:13;51.27;;;20.30;;
22378;SDS011;11357;49.990;7.370;2024-01-27T09:55:39;90.13;;;37.77;;
22378;SDS011;11357;49.990;7.370;2024-01-27T09:58:04;114.20;;;50.70;;
22378;SDS011;11357;49.990;7.370;2024-01-27T10:03:06;148.47;;;69.47;;
22378;SDS011;11357;49.990;7.370;2024-01-27T10:05:33;185.90;;;92.70;;
22378;SDS011;11357;49.990;7.370;2024-01-27T10:08:00;142.77;;;47.43;;
22378;SDS011;11357;49.990;7.370;2024-01-27T10:10:26;121.50;;;40.17;;
22378;SDS011;11357;49.990;7.370;2024-01-27T10:12:52;83.67;;;32.67;;
22378;SDS011;11357;49.990;7.370;2024-01-27T10:15:19;77.20;;;32.23;;
22378;SDS011;11357;49.990;7.370;2024-01-27T10:17:46;66.23;;;23.07;;
22378;SDS011;11357;49.990;7.370;2024-01-27T10:20:11;101.40;;;24.37;;
22378;SDS011;11357;49.990;7.370;2024-01-27T14:28:03;1999.90;;;999.90;;
22378;SDS011;11357;49.990;7.370;2024-01-27T14:30:32;1999.90;;;999.90;;
22378;SDS011;11357;49.990;7.370;2024-01-27T14:32:58;1999.90;;;999.90;;
22378;SDS011;11357;49.990;7.370;2024-01-27T14:35:24;1999.90;;;999.90;;
22378;SDS011;11357;49.990;7.370;2024-01-27T14:37:52;1999.90;;;999.90;;
22378;SDS011;11357;49.990;7.370;2024-01-27T14:40:19;1999.90;;;999.90;;
22378;SDS011;11357;49.990;7.370;2024-01-27T14:42:46;1999.90;;;999.90;;
22378;SDS011;11357;49.990;7.370;2024-01-27T14:45:12;1999.90;;;999.90;;
22378;SDS011;11357;49.990;7.370;2024-01-27T14:47:38;1658.67;;;999.90;;
22378;SDS011;11357;49.990;7.370;2024-01-27T14:50:04;1999.90;;;999.90;;
22378;SDS011;11357;49.990;7.370;2024-01-27T15:30:35;1999.90;;;999.90;;
22378;SDS011;11357;49.990;7.370;2024-01-27T15:59:16;1999.90;;;999.90;;
22378;SDS011;11357;49.990;7.370;2024-01-27T16:01:42;1999.90;;;999.90;;
22378;SDS011;11357;49.990;7.370;2024-01-27T16:04:08;1999.90;;;999.90;;
22378;SDS011;11357;49.990;7.370;2024-01-27T16:06:36;1999.90;;;999.90;;
22378;SDS011;11357;49.990;7.370;2024-01-27T16:09:02;1999.90;;;999.90;;
22378;SDS011;11357;49.990;7.370;2024-01-27T18:57:16;880.80;;;269.37;;
22378;SDS011;11357;49.990;7.370;2024-01-27T18:59:42;904.27;;;259.40;;
22378;SDS011;11357;49.990;7.370;2024-01-27T19:38:41;748.73;;;241.90;;
22378;SDS011;11357;49.990;7.370;2024-01-27T20:00:03;768.03;;;242.13;;
22378;SDS011;11357;49.990;7.370;2024-01-27T20:22:09;729.23;;;231.53;;
22378;SDS011;11357;49.990;7.370;2024-01-27T20:24:38;664.50;;;217.53;;
22378;SDS011;11357;49.990;7.370;2024-01-27T20:27:04;593.90;;;206.53;;
22378;SDS011;11357;49.990;7.370;2024-01-27T20:29:30;658.00;;;223.77;;
22378;SDS011;11357;49.990;7.370;2024-01-27T21:02:50;848.40;;;242.10;;
22378;SDS011;11357;49.990;7.370;2024-01-27T21:05:19;967.20;;;277.03;;
22378;SDS011;11357;49.990;7.370;2024-01-27T21:07:45;861.43;;;249.43;;
22378;SDS011;11357;49.990;7.370;2024-01-27T21:10:10;974.27;;;278.63;;
22378;SDS011;11357;49.990;7.370;2024-01-27T21:12:39;941.77;;;264.47;;
22378;SDS011;11357;49.990;7.370;2024-01-27T21:15:07;1043.67;;;298.27;;
22378;SDS011;11357;49.990;7.370;2024-01-27T21:17:33;831.43;;;188.43;;
22378;SDS011;11357;49.990;7.370;2024-01-27T21:19:59;713.87;;;272.43;;
22378;SDS011;11357;49.990;7.370;2024-01-27T21:22:24;939.60;;;280.63;;
22378;SDS011;11357;49.990;7.370;2024-01-27T21:24:51;983.00;;;275.40;;
22378;SDS011;11357;49.990;7.370;2024-01-27T21:27:16;819.07;;;260.90;;
22378;SDS011;11357;49.990;7.370;2024-01-27T21:29:42;715.87;;;235.97;;
22378;SDS011;11357;49.990;7.370;2024-01-27T21:32:08;642.80;;;226.10;;
22378;SDS011;11357;49.990;7.370;2024-01-27T21:34:33;861.03;;;268.07;;
22378;SDS011;11357;49.990;7.370;2024-01-27T21:36:59;645.37;;;227.57;;
22378;SDS011;11357;49.990;7.370;2024-01-27T21:39:25;768.27;;;261.33;;
22378;SDS011;11357;49.990;7.370;2024-01-27T21:41:51;701.07;;;246.00;;
22378;SDS011;11357;49.990;7.370;2024-01-27T21:44:16;804.97;;;251.97;;
22378;SDS011;11357;49.990;7.370;2024-01-27T21:46:42;764.67;;;230.13;;
22378;SDS011;11357;49.990;7.370;2024-01-27T21:49:08;678.83;;;229.37;;
22378;SDS011;11357;49.990;7.370;2024-01-27T21:54:09;731.43;;;262.63;;
22378;SDS011;11357;49.990;7.370;2024-01-27T21:56:35;695.60;;;244.73;;
22378;SDS011;11357;49.990;7.370;2024-01-27T21:59:00;690.70;;;248.60;;
22378;SDS011;11357;49.990;7.370;2024-01-27T22:01:27;795.43;;;256.50;;
22378;SDS011;11357;49.990;7.370;2024-01-27T22:03:55;756.67;;;243.63;;
22378;SDS011;11357;49.990;7.370;2024-01-27T22:06:22;784.73;;;233.27;;
22378;SDS011;11357;49.990;7.370;2024-01-27T22:08:48;709.30;;;229.50;;
22378;SDS011;11357;49.990;7.370;2024-01-27T22:11:14;787.00;;;237.40;;
22378;SDS011;11357;49.990;7.370;2024-01-27T22:13:40;729.80;;;217.80;;
22378;SDS011;11357;49.990;7.370;2024-01-27T22:16:06;720.33;;;211.57;;
22378;SDS011;11357;49.990;7.370;2024-01-27T22:18:32;654.30;;;224.20;;
22378;SDS011;11357;49.990;7.370;2024-01-27T22:20:58;789.73;;;237.17;;
22378;SDS011;11357;49.990;7.370;2024-01-27T22:23:25;759.87;;;227.47;;
22378;SDS011;11357;49.990;7.370;2024-01-27T22:25:51;634.93;;;230.90;;
22378;SDS011;11357;49.990;7.370;2024-01-27T22:28:19;643.50;;;236.83;;
22378;SDS011;11357;49.990;7.370;2024-01-27T22:30:45;679.47;;;246.30;;
